Time;durP1;ratioP1;P1;durP2;ratioP2;P2;SDS_P1;SDS_P2;PMS_P1;PMS_P2;Temp;Humidity;BMP_temperature;BMP_pressure;BME280_temperature;BME280_humidity;BME280_pressure;Samples;Min_cycle;Max_cycle;Signal;HPM_P1;HPM_P2
2024/01/08 00:02:14;;;;;;;4.72;2.22;;;;;;;;;;5065494;28;20064;-85
2024/01/08 00:04:59;;;;;;;4.30;2.70;;;;;;;;;;5066024;28;20506;-82
2024/01/08 00:07:44;;;;;;;3.42;2.60;;;;;;;;;;5065569;28;20028;-85
2024/01/08 00:10:30;;;;;;;4.78;2.50;;;;;;;;;;5065743;28;20047;-86
2024/01/08 00:13:15;;;;;;;4.10;2.35;;;;;;;;;;5066155;28;20024;-85
2024/01/08 00:16:00;;;;;;;5.00;2.65;;;;;;;;;;5073092;28;20035;-85
2024/01/08 00:18:45;;;;;;;4.43;2.58;;;;;;;;;;5078383;28;20121;-84
2024/01/08 00:21:30;;;;;;;3.13;2.22;;;;;;;;;;5072364;28;20016;-84
2024/01/08 00:24:16;;;;;;;3.50;2.45;;;;;;;;;;5072746;28;20024;-85
2024/01/08 00:27:01;;;;;;;9.90;2.85;;;;;;;;;;5074839;28;20097;-84
2024/01/08 00:29:47;;;;;;;2.92;2.22;;;;;;;;;;5065657;28;20028;-84
2024/01/08 00:32:32;;;;;;;3.42;2.45;;;;;;;;;;5070721;28;20028;-85
2024/01/08 00:35:17;;;;;;;4.88;2.45;;;;;;;;;;5072250;28;20505;-85
2024/01/08 00:38:02;;;;;;;4.32;2.35;;;;;;;;;;5079980;28;20038;-86
2024/01/08 00:40:48;;;;;;;4.05;2.53;;;;;;;;;;5073708;28;20036;-84
2024/01/08 00:43:33;;;;;;;4.30;2.45;;;;;;;;;;5070923;28;20093;-84
2024/01/08 00:46:18;;;;;;;4.07;2.53;;;;;;;;;;5071826;28;20020;-84
2024/01/08 00:49:03;;;;;;;5.07;2.50;;;;;;;;;;5072293;28;20020;-84
2024/01/08 00:51:49;;;;;;;5.50;3.22;;;;;;;;;;5062338;28;20107;-84
2024/01/08 00:54:34;;;;;;;3.15;2.50;;;;;;;;;;5070195;28;20103;-83
2024/01/08 00:57:19;;;;;;;4.13;2.53;;;;;;;;;;5072867;28;20020;-83
2024/01/08 01:00:05;;;;;;;4.63;2.65;;;;;;;;;;5052845;28;20020;-85
2024/01/08 01:02:50;;;;;;;3.75;2.40;;;;;;;;;;5065096;28;20031;-86
2024/01/08 01:05:36;;;;;;;4.72;2.70;;;;;;;;;;5066678;28;20046;-85
2024/01/08 01:08:21;;;;;;;5.03;2.58;;;;;;;;;;5072225;28;20028;-86
2024/01/08 01:11:06;;;;;;;3.97;2.63;;;;;;;;;;5071738;28;20052;-85
2024/01/08 01:13:51;;;;;;;4.10;2.88;;;;;;;;;;5081800;28;20030;-84
2024/01/08 01:16:36;;;;;;;3.22;2.47;;;;;;;;;;5071294;28;20027;-86
2024/01/08 01:19:22;;;;;;;3.42;2.35;;;;;;;;;;5076896;28;20028;-85
2024/01/08 01:22:07;;;;;;;5.72;3.03;;;;;;;;;;5070050;28;20031;-85
2024/01/08 01:24:52;;;;;;;5.35;2.95;;;;;;;;;;5074104;28;20074;-85
2024/01/08 01:27:37;;;;;;;4.05;2.65;;;;;;;;;;5063511;28;20064;-85
2024/01/08 01:30:22;;;;;;;4.15;2.55;;;;;;;;;;5079959;28;20024;-84
2024/01/08 01:33:08;;;;;;;6.05;2.97;;;;;;;;;;5095311;28;20048;-84
2024/01/08 01:35:53;;;;;;;5.05;3.13;;;;;;;;;;5099483;28;20049;-85
2024/01/08 01:38:38;;;;;;;5.28;3.00;;;;;;;;;;5084764;28;20023;-85
2024/01/08 01:41:23;;;;;;;4.38;2.85;;;;;;;;;;5078708;28;20017;-85
2024/01/08 01:44:09;;;;;;;6.25;2.85;;;;;;;;;;5096679;28;20182;-84
2024/01/08 01:46:55;;;;;;;6.03;3.17;;;;;;;;;;5074245;28;20012;-84
2024/01/08 01:49:41;;;;;;;4.97;3.10;;;;;;;;;;5072892;28;20107;-84
2024/01/08 01:52:26;;;;;;;3.92;2.53;;;;;;;;;;5062922;28;20024;-84
2024/01/08 01:55:11;;;;;;;4.88;2.75;;;;;;;;;;5075861;28;20055;-84
2024/01/08 01:57:57;;;;;;;5.78;3.08;;;;;;;;;;5062889;28;20497;-84
2024/01/08 02:00:42;;;;;;;5.40;2.88;;;;;;;;;;5071991;28;20028;-84
2024/01/08 02:03:28;;;;;;;6.55;3.13;;;;;;;;;;5070749;28;20171;-84
2024/01/08 02:06:14;;;;;;;5.07;2.78;;;;;;;;;;5056406;28;20023;-84
2024/01/08 02:09:00;;;;;;;6.25;3.40;;;;;;;;;;5070573;28;20074;-84
2024/01/08 02:11:45;;;;;;;5.70;3.08;;;;;;;;;;5065090;28;20040;-84
2024/01/08 02:14:30;;;;;;;5.90;3.50;;;;;;;;;;5058228;28;20081;-84
2024/01/08 02:17:16;;;;;;;5.03;3.17;;;;;;;;;;5065709;28;20033;-84
2024/01/08 02:20:01;;;;;;;6.40;3.42;;;;;;;;;;5062059;28;20056;-85
2024/01/08 02:22:46;;;;;;;6.40;3.40;;;;;;;;;;5064721;28;20031;-86
2024/01/08 02:25:31;;;;;;;8.20;3.30;;;;;;;;;;5065861;28;20024;-84
2024/01/08 02:28:17;;;;;;;5.97;3.30;;;;;;;;;;5058332;28;20506;-83
2024/01/08 02:31:02;;;;;;;5.22;3.30;;;;;;;;;;5071057;28;20055;-84
2024/01/08 02:33:47;;;;;;;4.75;3.22;;;;;;;;;;5065667;28;20051;-85
2024/01/08 02:36:32;;;;;;;5.78;3.40;;;;;;;;;;5062453;28;20034;-85
2024/01/08 02:39:18;;;;;;;6.03;3.35;;;;;;;;;;5061990;28;20025;-84
2024/01/08 02:42:03;;;;;;;6.95;3.25;;;;;;;;;;5065309;28;20489;-85
2024/01/08 02:44:48;;;;;;;6.28;2.85;;;;;;;;;;5048284;28;20111;-85
2024/01/08 02:47:37;;;;;;;6.30;2.95;;;;;;;;;;5064588;28;20032;-86
2024/01/08 02:50:22;;;;;;;5.57;3.30;;;;;;;;;;5069421;28;20098;-86
2024/01/08 02:53:07;;;;;;;5.25;3.00;;;;;;;;;;5069433;28;20039;-85
2024/01/08 02:55:53;;;;;;;5.25;3.30;;;;;;;;;;5061652;28;20564;-84
2024/01/08 02:58:38;;;;;;;5.25;3.20;;;;;;;;;;5067335;28;20480;-84
2024/01/08 03:01:23;;;;;;;7.63;2.95;;;;;;;;;;5069428;28;20391;-84
2024/01/08 03:04:08;;;;;;;4.93;3.25;;;;;;;;;;5056057;28;20032;-84
2024/01/08 03:06:53;;;;;;;4.65;2.70;;;;;;;;;;5067587;28;20036;-85
2024/01/08 03:09:39;;;;;;;6.00;3.58;;;;;;;;;;5070342;28;20486;-84
2024/01/08 03:12:25;;;;;;;5.70;3.30;;;;;;;;;;5050385;28;20296;-84
2024/01/08 03:15:10;;;;;;;5.40;2.63;;;;;;;;;;5065558;28;20032;-84
2024/01/08 03:17:55;;;;;;;5.80;3.05;;;;;;;;;;5057952;28;20025;-85
2024/01/08 03:20:41;;;;;;;5.78;3.58;;;;;;;;;;5077645;28;20032;-84
2024/01/08 03:23:27;;;;;;;5.93;3.15;;;;;;;;;;5077846;28;20043;-84
2024/01/08 03:26:12;;;;;;;4.28;2.80;;;;;;;;;;5068620;28;20038;-84
2024/01/08 03:28:58;;;;;;;5.72;2.72;;;;;;;;;;5083494;28;20043;-85
2024/01/08 03:31:43;;;;;;;6.60;3.13;;;;;;;;;;5082230;28;20031;-84
2024/01/08 03:34:29;;;;;;;5.72;3.25;;;;;;;;;;5058945;28;20036;-85
2024/01/08 03:37:14;;;;;;;5.38;3.17;;;;;;;;;;5069468;28;20097;-85
2024/01/08 03:40:02;;;;;;;6.50;3.67;;;;;;;;;;5072856;28;20029;-83
2024/01/08 03:42:47;;;;;;;5.55;3.53;;;;;;;;;;5070361;28;20380;-85
2024/01/08 03:45:32;;;;;;;5.85;3.00;;;;;;;;;;5069437;28;20508;-84
2024/01/08 03:48:17;;;;;;;9.52;3.63;;;;;;;;;;5071027;28;20024;-85
2024/01/08 03:51:02;;;;;;;4.57;3.25;;;;;;;;;;5061678;28;20097;-84
2024/01/08 03:53:48;;;;;;;6.65;3.15;;;;;;;;;;5070724;28;20031;-85
2024/01/08 03:56:33;;;;;;;5.45;3.35;;;;;;;;;;5060823;28;20122;-85
2024/01/08 03:59:18;;;;;;;4.05;2.70;;;;;;;;;;5059365;28;20419;-84
2024/01/08 04:02:04;;;;;;;5.65;3.05;;;;;;;;;;5070119;28;20033;-85
2024/01/08 04:04:49;;;;;;;4.45;2.80;;;;;;;;;;5069245;28;20032;-84
2024/01/08 04:07:34;;;;;;;5.13;3.03;;;;;;;;;;5056894;28;20029;-84
2024/01/08 04:10:19;;;;;;;6.80;3.65;;;;;;;;;;5072102;28;20040;-84
2024/01/08 04:13:05;;;;;;;6.72;3.33;;;;;;;;;;5069084;28;20038;-85
2024/01/08 04:15:53;;;;;;;5.90;3.33;;;;;;;;;;5067882;28;20028;-83
2024/01/08 04:18:38;;;;;;;5.55;3.15;;;;;;;;;;5067432;28;20020;-83
2024/01/08 04:21:24;;;;;;;4.95;2.85;;;;;;;;;;5067280;28;20470;-83
2024/01/08 04:24:09;;;;;;;4.38;3.03;;;;;;;;;;5065853;28;20067;-83
2024/01/08 04:26:54;;;;;;;5.10;3.05;;;;;;;;;;5064922;28;20039;-83
2024/01/08 04:29:39;;;;;;;5.85;2.95;;;;;;;;;;5066107;28;20105;-82
2024/01/08 04:32:24;;;;;;;6.30;3.30;;;;;;;;;;5066417;28;20036;-82
2024/01/08 04:35:10;;;;;;;5.80;3.22;;;;;;;;;;5066397;28;20043;-83
2024/01/08 04:37:55;;;;;;;4.93;2.97;;;;;;;;;;5065336;28;20029;-83
2024/01/08 04:40:40;;;;;;;7.20;3.10;;;;;;;;;;5073068;28;20028;-86
2024/01/08 04:43:25;;;;;;;6.80;2.83;;;;;;;;;;5070674;28;20028;-84
2024/01/08 04:46:11;;;;;;;6.90;3.83;;;;;;;;;;5066686;28;20020;-84
2024/01/08 04:48:56;;;;;;;6.22;3.15;;;;;;;;;;5066847;28;20032;-86
2024/01/08 04:51:41;;;;;;;6.00;2.92;;;;;;;;;;5064477;28;20043;-84
2024/01/08 04:54:27;;;;;;;5.18;3.28;;;;;;;;;;5064772;28;20111;-84
2024/01/08 04:57:12;;;;;;;5.53;3.40;;;;;;;;;;5066981;28;20071;-85
2024/01/08 04:59:57;;;;;;;6.43;3.33;;;;;;;;;;5070165;28;20329;-83
2024/01/08 05:02:42;;;;;;;7.25;3.33;;;;;;;;;;5066420;28;20020;-85
2024/01/08 05:05:28;;;;;;;5.28;3.75;;;;;;;;;;5065569;28;20103;-85
2024/01/08 05:08:13;;;;;;;5.88;3.30;;;;;;;;;;5065610;28;20024;-85
2024/01/08 05:10:58;;;;;;;3.58;2.65;;;;;;;;;;5056116;28;20036;-84
2024/01/08 05:13:44;;;;;;;6.47;3.42;;;;;;;;;;5061735;28;20078;-85
2024/01/08 05:16:29;;;;;;;6.18;3.42;;;;;;;;;;5056006;28;20028;-85
2024/01/08 05:19:14;;;;;;;4.78;2.72;;;;;;;;;;5066576;28;20031;-86
2024/01/08 05:21:59;;;;;;;7.57;3.65;;;;;;;;;;5066510;28;20044;-85
2024/01/08 05:24:45;;;;;;;6.18;4.20;;;;;;;;;;5068205;28;20081;-85
2024/01/08 05:27:30;;;;;;;6.45;3.70;;;;;;;;;;5062111;28;20052;-85
2024/01/08 05:30:34;;;;;;;4.72;2.65;;;;;;;;;;5060114;28;20047;-83
2024/01/08 05:33:20;;;;;;;4.88;2.97;;;;;;;;;;5067797;28;20032;-85
2024/01/08 05:36:08;;;;;;;7.53;3.72;;;;;;;;;;5071648;28;20422;-84
2024/01/08 05:38:53;;;;;;;5.97;3.50;;;;;;;;;;5063233;28;20056;-84
2024/01/08 05:41:40;;;;;;;6.57;3.50;;;;;;;;;;5069408;28;20034;-85
2024/01/08 05:44:25;;;;;;;4.63;3.20;;;;;;;;;;5066549;28;20031;-79
2024/01/08 05:47:11;;;;;;;7.95;4.35;;;;;;;;;;5062737;28;20020;-85
2024/01/08 05:49:56;;;;;;;5.80;3.58;;;;;;;;;;5070622;28;20435;-85
2024/01/08 05:52:43;;;;;;;6.30;3.50;;;;;;;;;;5072207;28;20039;-84
2024/01/08 05:55:28;;;;;;;6.47;3.55;;;;;;;;;;5071947;28;20023;-86
2024/01/08 05:58:13;;;;;;;6.40;3.75;;;;;;;;;;5055725;28;20044;-82
2024/01/08 06:00:59;;;;;;;5.55;3.30;;;;;;;;;;5064073;28;20471;-87
2024/01/08 06:03:44;;;;;;;7.22;3.90;;;;;;;;;;5095019;28;20020;-86
2024/01/08 06:06:29;;;;;;;6.65;3.80;;;;;;;;;;5045955;28;20021;-85
2024/01/08 06:09:15;;;;;;;6.57;3.42;;;;;;;;;;5082918;28;20036;-86
2024/01/08 06:12:00;;;;;;;6.47;3.45;;;;;;;;;;5077601;28;20120;-84
2024/01/08 06:14:45;;;;;;;8.88;4.10;;;;;;;;;;5072199;28;20028;-90
2024/01/08 06:17:30;;;;;;;4.78;3.00;;;;;;;;;;5059386;28;20516;-89
2024/01/08 06:20:16;;;;;;;5.60;2.88;;;;;;;;;;5064224;28;20471;-89
2024/01/08 06:23:04;;;;;;;5.53;2.83;;;;;;;;;;5058670;28;20025;-85
2024/01/08 06:25:49;;;;;;;5.53;2.85;;;;;;;;;;5078216;28;20035;-86
2024/01/08 06:28:35;;;;;;;6.60;3.30;;;;;;;;;;5071984;28;20024;-86
2024/01/08 06:31:20;;;;;;;5.53;2.92;;;;;;;;;;5056855;28;20029;-88
2024/01/08 06:34:05;;;;;;;5.65;2.97;;;;;;;;;;5050233;28;20025;-88
2024/01/08 06:36:50;;;;;;;5.00;3.53;;;;;;;;;;5069295;28;20036;-87
2024/01/08 06:39:37;;;;;;;5.18;3.38;;;;;;;;;;5060151;28;20027;-87
2024/01/08 06:42:22;;;;;;;5.75;3.08;;;;;;;;;;5059546;28;20086;-88
2024/01/08 06:45:08;;;;;;;5.32;3.05;;;;;;;;;;5063844;28;20020;-86
2024/01/08 06:47:53;;;;;;;5.72;3.70;;;;;;;;;;5062845;28;20041;-87
2024/01/08 06:50:40;;;;;;;13.93;3.90;;;;;;;;;;5064443;28;20151;-87
2024/01/08 06:53:25;;;;;;;7.95;3.33;;;;;;;;;;5065456;28;20028;-88
2024/01/08 06:56:10;;;;;;;6.10;3.22;;;;;;;;;;5065903;28;20024;-86
2024/01/08 06:58:56;;;;;;;5.50;3.28;;;;;;;;;;5061478;28;20028;-87
2024/01/08 07:01:41;;;;;;;6.93;3.38;;;;;;;;;;5070530;28;20039;-85
2024/01/08 07:04:26;;;;;;;7.80;3.65;;;;;;;;;;5066413;28;20022;-86
2024/01/08 07:07:12;;;;;;;5.85;2.85;;;;;;;;;;5065635;28;20070;-87
2024/01/08 07:09:57;;;;;;;5.30;2.88;;;;;;;;;;5070855;28;20500;-86
2024/01/08 07:12:43;;;;;;;6.20;3.38;;;;;;;;;;5078672;28;20038;-88
2024/01/08 07:15:40;;;;;;;7.45;3.42;;;;;;;;;;5074616;28;20325;-90
2024/01/08 07:18:25;;;;;;;6.70;3.33;;;;;;;;;;5079257;28;20109;-87
2024/01/08 07:21:13;;;;;;;7.18;3.97;;;;;;;;;;5072077;28;20050;-86
2024/01/08 07:23:58;;;;;;;6.13;3.45;;;;;;;;;;5080283;28;20016;-87
2024/01/08 07:26:43;;;;;;;6.88;3.88;;;;;;;;;;5078407;28;20028;-87
2024/01/08 07:29:31;;;;;;;3.80;2.63;;;;;;;;;;5072494;28;20055;-87
2024/01/08 07:32:18;;;;;;;6.20;3.70;;;;;;;;;;5074037;28;20031;-83
2024/01/08 07:35:03;;;;;;;6.78;3.17;;;;;;;;;;5071046;28;20115;-84
2024/01/08 07:37:55;;;;;;;5.38;3.40;;;;;;;;;;5071198;28;20024;-86
2024/01/08 07:40:40;;;;;;;6.00;3.03;;;;;;;;;;5070309;28;20073;-87
2024/01/08 07:43:25;;;;;;;5.70;3.20;;;;;;;;;;5083819;28;20067;-88
2024/01/08 07:46:10;;;;;;;5.43;2.90;;;;;;;;;;5078352;28;20032;-88
2024/01/08 07:48:56;;;;;;;5.63;2.78;;;;;;;;;;5084520;28;20016;-88
2024/01/08 07:51:41;;;;;;;11.50;3.63;;;;;;;;;;5074887;28;20035;-86
2024/01/08 07:54:26;;;;;;;5.75;3.30;;;;;;;;;;5079878;28;20131;-87
2024/01/08 07:57:11;;;;;;;6.28;3.38;;;;;;;;;;5067777;28;20665;-89
2024/01/08 07:59:57;;;;;;;8.00;3.50;;;;;;;;;;5075108;28;20106;-86
2024/01/08 08:02:43;;;;;;;6.53;3.60;;;;;;;;;;5091062;28;20019;-89
2024/01/08 08:05:28;;;;;;;7.45;3.22;;;;;;;;;;5095401;28;20024;-88
2024/01/08 08:08:13;;;;;;;6.10;3.22;;;;;;;;;;5078340;28;21570;-88
2024/01/08 08:11:00;;;;;;;5.63;3.00;;;;;;;;;;5065388;28;20119;-87
2024/01/08 08:13:45;;;;;;;4.93;3.17;;;;;;;;;;5058935;28;20020;-87
2024/01/08 08:16:31;;;;;;;7.25;3.60;;;;;;;;;;5070482;28;20050;-88
2024/01/08 08:19:16;;;;;;;6.35;3.85;;;;;;;;;;5078242;28;20081;-89
2024/01/08 08:22:01;;;;;;;5.90;3.38;;;;;;;;;;5073449;28;20543;-89
2024/01/08 08:24:47;;;;;;;6.75;3.47;;;;;;;;;;5072917;28;20103;-91
2024/01/08 08:27:32;;;;;;;7.72;3.33;;;;;;;;;;5071908;28;20032;-87
2024/01/08 08:30:19;;;;;;;6.20;3.25;;;;;;;;;;5074731;28;20394;-90
2024/01/08 08:33:04;;;;;;;5.03;3.17;;;;;;;;;;5071288;28;20093;-89
2024/01/08 08:35:50;;;;;;;4.68;3.15;;;;;;;;;;5069687;28;20073;-84
2024/01/08 08:38:36;;;;;;;7.30;3.40;;;;;;;;;;5074172;28;20081;-85
2024/01/08 08:41:21;;;;;;;8.18;3.60;;;;;;;;;;5068426;28;20031;-83
2024/01/08 08:44:08;;;;;;;5.80;3.47;;;;;;;;;;5077674;28;20020;-90
2024/01/08 08:46:53;;;;;;;7.43;3.50;;;;;;;;;;5092434;28;20114;-89
2024/01/08 08:49:39;;;;;;;8.10;5.15;;;;;;;;;;5085803;28;20039;-86
2024/01/08 08:52:24;;;;;;;7.78;4.30;;;;;;;;;;5075069;28;20035;-87
2024/01/08 08:55:09;;;;;;;6.53;3.63;;;;;;;;;;5069457;28;20055;-84
2024/01/08 08:57:54;;;;;;;6.65;3.90;;;;;;;;;;5072372;28;20020;-87
2024/01/08 09:00:40;;;;;;;6.07;3.00;;;;;;;;;;5068856;28;20024;-88
2024/01/08 09:03:26;;;;;;;6.75;3.40;;;;;;;;;;5078928;28;20580;-86
2024/01/08 09:06:11;;;;;;;5.78;3.08;;;;;;;;;;5070933;28;20494;-85
2024/01/08 09:08:56;;;;;;;6.78;3.35;;;;;;;;;;5065204;28;20023;-84
2024/01/08 09:11:41;;;;;;;6.93;3.22;;;;;;;;;;5061747;28;20071;-88
2024/01/08 09:14:27;;;;;;;5.18;3.08;;;;;;;;;;5060507;28;20573;-84
2024/01/08 09:17:12;;;;;;;7.30;3.45;;;;;;;;;;5067675;28;20482;-84
2024/01/08 09:19:57;;;;;;;7.43;3.15;;;;;;;;;;5066053;28;20028;-86
2024/01/08 09:22:43;;;;;;;5.72;3.20;;;;;;;;;;5071895;28;20038;-87
2024/01/08 09:25:28;;;;;;;5.97;3.60;;;;;;;;;;5067889;28;20033;-84
2024/01/08 09:28:13;;;;;;;5.65;2.95;;;;;;;;;;5068059;28;20039;-84
2024/01/08 09:31:00;;;;;;;8.32;3.92;;;;;;;;;;5065798;28;20107;-84
2024/01/08 09:33:45;;;;;;;7.32;3.88;;;;;;;;;;5064006;28;20024;-83
2024/01/08 09:36:31;;;;;;;7.07;3.58;;;;;;;;;;5061889;28;20418;-83
2024/01/08 09:39:16;;;;;;;6.72;3.65;;;;;;;;;;5080404;28;20015;-82
2024/01/08 09:42:03;;;;;;;7.03;3.50;;;;;;;;;;5085594;28;20040;-86
2024/01/08 09:44:51;;;;;;;7.60;3.60;;;;;;;;;;5092563;28;20020;-89
2024/01/08 09:47:40;;;;;;;8.45;3.83;;;;;;;;;;5087228;28;20052;-84
2024/01/08 09:50:28;;;;;;;5.88;3.60;;;;;;;;;;5087598;28;20088;-84
2024/01/08 09:53:14;;;;;;;8.90;4.28;;;;;;;;;;5082904;28;20382;-85
2024/01/08 09:56:00;;;;;;;5.85;3.33;;;;;;;;;;5062020;28;20047;-83
2024/01/08 09:58:45;;;;;;;7.78;3.75;;;;;;;;;;5064214;28;20024;-84
2024/01/08 10:01:31;;;;;;;6.10;3.53;;;;;;;;;;5069718;28;20531;-84
2024/01/08 10:04:16;;;;;;;8.35;3.78;;;;;;;;;;5066299;28;20021;-85
2024/01/08 10:07:02;;;;;;;8.00;3.28;;;;;;;;;;5051900;28;20036;-84
2024/01/08 10:09:50;;;;;;;7.25;3.67;;;;;;;;;;5064595;28;20020;-84
2024/01/08 10:12:36;;;;;;;6.47;3.22;;;;;;;;;;5039450;28;20466;-84
2024/01/08 10:15:24;;;;;;;7.40;3.88;;;;;;;;;;5043623;28;20033;-84
2024/01/08 10:18:10;;;;;;;8.55;3.30;;;;;;;;;;5043739;28;20033;-82
2024/01/08 10:21:09;;;;;;;10.77;3.35;;;;;;;;;;5044106;28;20024;-82
2024/01/08 10:24:06;;;;;;;10.13;3.65;;;;;;;;;;5044291;28;20025;-82
2024/01/08 10:26:51;;;;;;;7.90;4.45;;;;;;;;;;5028910;28;20076;-83
2024/01/08 10:29:37;;;;;;;6.38;3.55;;;;;;;;;;5041722;28;20028;-83
2024/01/08 10:32:25;;;;;;;7.97;3.38;;;;;;;;;;5044629;28;20052;-83
2024/01/08 10:35:10;;;;;;;6.97;2.90;;;;;;;;;;5050129;28;20068;-83
2024/01/08 10:37:58;;;;;;;5.00;2.58;;;;;;;;;;5061713;28;20051;-84
2024/01/08 10:40:43;;;;;;;7.30;3.10;;;;;;;;;;5065269;28;20035;-83
2024/01/08 10:43:29;;;;;;;5.85;2.83;;;;;;;;;;5056063;28;20104;-83
2024/01/08 10:46:14;;;;;;;6.35;3.55;;;;;;;;;;5053717;28;20037;-85
2024/01/08 10:49:00;;;;;;;6.68;3.10;;;;;;;;;;5043105;28;20102;-81
2024/01/08 10:51:47;;;;;;;5.20;3.20;;;;;;;;;;5043454;28;20060;-84
2024/01/08 10:54:58;;;;;;;4.72;3.28;;;;;;;;;;5044169;28;20502;-83
2024/01/08 10:57:54;;;;;;;8.02;3.70;;;;;;;;;;5039107;28;20025;-83
2024/01/08 11:00:39;;;;;;;6.03;3.22;;;;;;;;;;5050810;28;20020;-84
2024/01/08 11:03:25;;;;;;;7.22;3.65;;;;;;;;;;5043862;28;20031;-83
2024/01/08 11:06:10;;;;;;;5.15;3.08;;;;;;;;;;5029279;28;20060;-81
2024/01/08 11:08:59;;;;;;;6.15;2.95;;;;;;;;;;5044891;28;20120;-81
2024/01/08 11:11:44;;;;;;;6.18;3.00;;;;;;;;;;5059969;28;20057;-81
2024/01/08 11:14:30;;;;;;;5.75;2.90;;;;;;;;;;5061860;28;20028;-83
2024/01/08 11:17:15;;;;;;;7.50;3.63;;;;;;;;;;5067624;28;20035;-82
2024/01/08 11:20:05;;;;;;;5.65;2.90;;;;;;;;;;5038069;28;20028;-82
2024/01/08 11:22:52;;;;;;;7.22;3.35;;;;;;;;;;5060519;28;20028;-83
2024/01/08 11:25:38;;;;;;;6.82;2.92;;;;;;;;;;5057845;28;20371;-83
2024/01/08 11:28:23;;;;;;;4.25;2.90;;;;;;;;;;5054223;28;20021;-83
2024/01/08 11:31:27;;;;;;;4.90;2.58;;;;;;;;;;5064740;28;20051;-83
2024/01/08 11:34:12;;;;;;;7.18;3.13;;;;;;;;;;5064625;28;20020;-82
2024/01/08 11:37:16;;;;;;;4.90;3.03;;;;;;;;;;5055035;28;20028;-82
2024/01/08 11:40:04;;;;;;;5.13;2.85;;;;;;;;;;5068481;28;20024;-82
2024/01/08 11:42:50;;;;;;;7.32;3.40;;;;;;;;;;5064303;28;20074;-81
2024/01/08 11:45:35;;;;;;;6.30;3.47;;;;;;;;;;5063886;28;20032;-82
2024/01/08 11:48:21;;;;;;;8.70;3.70;;;;;;;;;;5068362;28;20032;-82
2024/01/08 11:51:07;;;;;;;5.43;2.92;;;;;;;;;;5066266;28;20021;-81
2024/01/08 11:53:53;;;;;;;5.40;2.70;;;;;;;;;;5067005;28;20028;-81
2024/01/08 11:56:39;;;;;;;4.90;2.83;;;;;;;;;;5059429;28;20114;-81
2024/01/08 11:59:31;;;;;;;6.90;3.30;;;;;;;;;;5065049;28;20032;-81
2024/01/08 12:02:17;;;;;;;5.20;2.95;;;;;;;;;;5067477;28;20749;-82
2024/01/08 12:05:03;;;;;;;5.43;3.08;;;;;;;;;;5064110;28;20024;-81
2024/01/08 12:07:51;;;;;;;6.15;2.90;;;;;;;;;;5064679;28;20108;-81
2024/01/08 12:10:37;;;;;;;6.35;3.63;;;;;;;;;;5065269;28;20040;-81
2024/01/08 12:13:24;;;;;;;5.35;3.30;;;;;;;;;;5071777;28;20439;-82
2024/01/08 12:16:09;;;;;;;6.25;2.75;;;;;;;;;;5072816;28;20043;-81
2024/01/08 12:18:54;;;;;;;5.00;3.08;;;;;;;;;;5066649;28;20016;-83
2024/01/08 12:21:40;;;;;;;8.65;3.78;;;;;;;;;;5078338;28;20032;-82
2024/01/08 12:24:25;;;;;;;7.35;3.72;;;;;;;;;;5072379;28;20020;-83
2024/01/08 12:27:11;;;;;;;6.80;3.58;;;;;;;;;;5066659;28;20391;-81
2024/01/08 12:29:57;;;;;;;6.95;3.38;;;;;;;;;;5068087;28;20024;-83
2024/01/08 12:32:42;;;;;;;6.60;3.33;;;;;;;;;;5070580;28;20031;-84
2024/01/08 12:35:29;;;;;;;8.30;3.10;;;;;;;;;;5069352;28;20036;-84
2024/01/08 12:38:14;;;;;;;6.90;3.10;;;;;;;;;;5070133;28;20097;-84
2024/01/08 12:40:59;;;;;;;5.68;2.70;;;;;;;;;;5064662;28;20024;-82
2024/01/08 12:43:44;;;;;;;6.65;3.33;;;;;;;;;;5063698;28;20055;-80
2024/01/08 12:46:30;;;;;;;6.43;3.20;;;;;;;;;;5067043;28;20040;-81
2024/01/08 12:49:15;;;;;;;5.53;3.13;;;;;;;;;;5076699;28;20053;-81
2024/01/08 12:52:00;;;;;;;5.20;2.90;;;;;;;;;;5072381;28;20024;-82
2024/01/08 12:54:46;;;;;;;6.63;3.03;;;;;;;;;;5072161;28;20119;-81
2024/01/08 12:57:31;;;;;;;5.95;2.92;;;;;;;;;;5071843;28;20024;-82
2024/01/08 13:00:16;;;;;;;5.18;3.25;;;;;;;;;;5067384;28;20157;-81
2024/01/08 13:03:02;;;;;;;6.78;3.33;;;;;;;;;;5071235;28;20505;-81
2024/01/08 13:05:47;;;;;;;6.50;3.63;;;;;;;;;;5053612;28;20027;-81
2024/01/08 13:08:35;;;;;;;6.93;2.67;;;;;;;;;;5070158;28;20429;-81
2024/01/08 13:11:20;;;;;;;7.32;3.40;;;;;;;;;;5065811;28;20109;-81
2024/01/08 13:14:13;;;;;;;6.63;3.65;;;;;;;;;;5070095;28;20028;-82
2024/01/08 13:16:58;;;;;;;7.70;3.60;;;;;;;;;;5082983;28;20074;-81
2024/01/08 13:19:44;;;;;;;5.68;3.45;;;;;;;;;;5071328;28;20085;-82
2024/01/08 13:22:29;;;;;;;7.32;3.08;;;;;;;;;;5069851;28;20039;-82
2024/01/08 13:25:14;;;;;;;7.25;3.92;;;;;;;;;;5070734;28;20039;-82
2024/01/08 13:28:01;;;;;;;8.07;3.78;;;;;;;;;;5070601;28;20038;-83
2024/01/08 13:30:46;;;;;;;5.18;2.88;;;;;;;;;;5076770;28;20575;-81
2024/01/08 13:33:32;;;;;;;7.10;3.00;;;;;;;;;;5069580;28;20040;-82
2024/01/08 13:36:17;;;;;;;7.40;3.45;;;;;;;;;;5074247;28;20036;-80
2024/01/08 13:39:08;;;;;;;6.68;3.97;;;;;;;;;;5074587;28;20046;-81
2024/01/08 13:41:53;;;;;;;7.85;3.60;;;;;;;;;;5069558;28;20062;-84
2024/01/08 13:44:39;;;;;;;8.70;4.22;;;;;;;;;;5070901;28;20024;-82
2024/01/08 13:47:24;;;;;;;8.10;3.60;;;;;;;;;;5070691;28;20416;-82
2024/01/08 13:50:09;;;;;;;8.23;4.22;;;;;;;;;;5072376;28;20075;-82
2024/01/08 13:52:55;;;;;;;7.15;3.67;;;;;;;;;;5070759;28;20028;-81
2024/01/08 13:55:41;;;;;;;8.18;3.47;;;;;;;;;;5072652;28;20039;-82
2024/01/08 13:58:27;;;;;;;7.78;3.35;;;;;;;;;;5065657;28;20055;-84
2024/01/08 14:01:12;;;;;;;6.18;3.60;;;;;;;;;;5061442;28;20036;-82
2024/01/08 14:04:00;;;;;;;7.95;4.03;;;;;;;;;;5070001;28;20028;-82
2024/01/08 14:06:45;;;;;;;8.40;4.50;;;;;;;;;;5071394;28;20027;-84
2024/01/08 14:09:30;;;;;;;7.88;4.43;;;;;;;;;;5071006;28;20489;-82
2024/01/08 14:12:16;;;;;;;9.20;4.57;;;;;;;;;;5069099;28;20527;-84
2024/01/08 14:15:01;;;;;;;8.13;3.95;;;;;;;;;;5069173;28;20519;-83
2024/01/08 14:17:47;;;;;;;7.43;3.72;;;;;;;;;;5069379;28;20547;-82
2024/01/08 14:20:32;;;;;;;8.25;4.30;;;;;;;;;;5063768;28;20036;-82
2024/01/08 14:23:17;;;;;;;10.05;4.50;;;;;;;;;;5069372;28;20115;-82
2024/01/08 14:26:03;;;;;;;8.27;4.47;;;;;;;;;;5055459;28;20024;-83
2024/01/08 14:28:48;;;;;;;8.95;4.78;;;;;;;;;;5066620;28;20028;-83
2024/01/08 14:31:34;;;;;;;7.93;4.45;;;;;;;;;;5069792;28;20020;-82
2024/01/08 14:34:19;;;;;;;7.30;4.05;;;;;;;;;;5070175;28;20028;-83
2024/01/08 14:37:04;;;;;;;11.07;4.70;;;;;;;;;;5069063;28;20111;-84
2024/01/08 14:39:50;;;;;;;9.15;4.30;;;;;;;;;;5070158;28;20024;-81
2024/01/08 14:42:37;;;;;;;9.43;4.72;;;;;;;;;;5070733;28;20700;-83
2024/01/08 14:45:22;;;;;;;8.75;4.97;;;;;;;;;;5075967;28;20081;-85
2024/01/08 14:48:07;;;;;;;9.27;4.10;;;;;;;;;;5068795;28;20035;-82
2024/01/08 14:50:52;;;;;;;7.72;4.35;;;;;;;;;;5069581;28;20067;-83
2024/01/08 14:53:40;;;;;;;14.35;5.88;;;;;;;;;;5067086;28;20038;-84
2024/01/08 14:56:25;;;;;;;9.43;4.75;;;;;;;;;;5069276;28;20033;-84
2024/01/08 14:59:11;;;;;;;11.40;5.05;;;;;;;;;;5063899;28;20044;-84
2024/01/08 15:01:56;;;;;;;10.07;5.10;;;;;;;;;;5066305;28;20031;-82
2024/01/08 15:04:41;;;;;;;9.48;4.65;;;;;;;;;;5064029;28;20024;-82
2024/01/08 15:07:27;;;;;;;11.55;4.88;;;;;;;;;;5065741;28;20089;-84
2024/01/08 15:10:12;;;;;;;12.05;5.22;;;;;;;;;;5069723;28;20757;-82
2024/01/08 15:12:58;;;;;;;10.27;5.38;;;;;;;;;;5064741;28;20032;-83
2024/01/08 15:15:43;;;;;;;13.27;6.38;;;;;;;;;;5062931;28;20219;-83
2024/01/08 15:18:29;;;;;;;9.57;5.55;;;;;;;;;;5062949;28;20036;-83
2024/01/08 15:21:15;;;;;;;11.30;5.32;;;;;;;;;;5067843;28;20043;-83
2024/01/08 15:24:01;;;;;;;10.25;5.53;;;;;;;;;;5066577;28;20040;-83
2024/01/08 15:26:47;;;;;;;12.95;5.40;;;;;;;;;;5062751;28;20024;-82
2024/01/08 15:29:32;;;;;;;9.60;5.50;;;;;;;;;;5067590;28;20134;-83
2024/01/08 15:32:18;;;;;;;10.27;4.65;;;;;;;;;;5066893;28;20021;-84
2024/01/08 15:35:04;;;;;;;9.63;5.20;;;;;;;;;;5061148;28;20421;-84
2024/01/08 15:37:49;;;;;;;13.48;6.05;;;;;;;;;;5066910;28;20032;-85
2024/01/08 15:40:34;;;;;;;12.65;5.63;;;;;;;;;;5065432;28;20032;-83
2024/01/08 15:43:20;;;;;;;13.90;6.35;;;;;;;;;;5065761;28;20125;-83
2024/01/08 15:46:06;;;;;;;12.88;7.00;;;;;;;;;;5066802;28;20052;-85
2024/01/08 15:48:52;;;;;;;9.20;5.07;;;;;;;;;;5062913;28;20032;-85
2024/01/08 15:51:37;;;;;;;11.23;5.22;;;;;;;;;;5064904;28;20489;-81
2024/01/08 15:54:23;;;;;;;12.18;5.57;;;;;;;;;;5067651;28;20547;-83
2024/01/08 15:57:09;;;;;;;13.50;5.70;;;;;;;;;;5068472;28;20024;-82
2024/01/08 15:59:54;;;;;;;13.07;5.43;;;;;;;;;;5059260;28;20559;-80
2024/01/08 16:02:40;;;;;;;10.73;5.50;;;;;;;;;;5062896;28;20040;-84
2024/01/08 16:05:25;;;;;;;10.27;5.30;;;;;;;;;;5051615;28;20074;-82
2024/01/08 16:08:13;;;;;;;12.70;6.10;;;;;;;;;;5051888;28;20089;-82
2024/01/08 16:10:58;;;;;;;11.40;5.20;;;;;;;;;;5052829;28;20048;-82
2024/01/08 16:13:46;;;;;;;11.13;6.40;;;;;;;;;;5064666;28;20382;-84
2024/01/08 16:16:31;;;;;;;9.30;4.85;;;;;;;;;;5066593;28;20437;-84
2024/01/08 16:19:17;;;;;;;11.00;5.80;;;;;;;;;;5066142;28;20494;-85
2024/01/08 16:22:02;;;;;;;9.63;5.07;;;;;;;;;;5050145;28;20468;-83
2024/01/08 16:24:47;;;;;;;11.45;5.85;;;;;;;;;;5066265;28;20023;-82
2024/01/08 16:27:33;;;;;;;11.75;5.85;;;;;;;;;;5052993;28;20032;-83
2024/01/08 16:30:18;;;;;;;13.65;6.32;;;;;;;;;;5062676;28;20491;-84
2024/01/08 16:33:03;;;;;;;15.30;6.00;;;;;;;;;;5061985;28;20064;-83